Creek Data

    Home     View Charts     View Raw Data     Messages

ID Distance Battery Voltage Battery Current Internal Temp Internal Humidity External Temp Solar Input rssi snr Time Stamp Record
36526 0.0 3.94 -5 48 41 49 0 -82 8 03/31/2025 10:15 PM 18382
36525 0.0 3.94 -5 48 41 49 0.1 -80 7 03/31/2025 10:00 PM 18381
36524 15.0 3.94 -5 47 42 49 0 -77 8 03/31/2025 09:45 PM 18380
36523 15.0 4.01 -5 48 42 49 0 -80 8 03/31/2025 09:30 PM 18379
36522 0.0 3.95 -5 49 42 50 0.1 -83 8 03/31/2025 09:15 PM 18378
36521 15.0 3.95 -5 49 42 51 0 -82 9 03/31/2025 09:00 PM 18377
36520 15.0 3.95 -5 49 42 50 0 -81 8 03/31/2025 08:45 PM 18376
36519 15.0 3.95 -5 49 43 50 0 -79 8 03/31/2025 08:30 PM 18375
36518 15.1 3.94 -5 49 44 50 0 -79 7 03/31/2025 08:15 PM 18374
36517 0.0 3.94 -5 50 44 50 0 -79 7 03/31/2025 08:01 PM 18373
36516 15.0 3.95 -5 51 45 51 0.3 -81 8 03/31/2025 07:45 PM 18372
36515 15.0 4.01 -9 53 45 52 2.8 -80 7 03/31/2025 07:30 PM 18371
36514 15.0 3.95 0 54 46 52 4.5 -79 8 03/31/2025 07:15 PM 18370
36513 15.0 4.07 0 59 42 56 4.5 -77 8 03/31/2025 07:00 PM 18369
36512 0.0 4.05 17 59 43 58 4.5 -79 8 03/31/2025 06:45 PM 18368
36511 15.1 4.01 0 59 44 56 4.5 -79 8 03/31/2025 06:30 PM 18367
36510 15.0 4.01 0 60 44 58 5.1 -81 8 03/31/2025 06:15 PM 18366
36509 0.0 4.02 0 61 44 57 5.1 -88 8 03/31/2025 06:00 PM 18365
36508 0.0 4.01 0 66 41 62 5.1 -83 8 03/31/2025 05:30 PM 18363
36507 0.0 4.14 0 61 44 58 5.1 -80 8 03/31/2025 05:15 PM 18362
36506 0.0 4.01 0 64 43 58 5.1 -80 8 03/31/2025 05:00 PM 18361
36505 0.0 4.01 0 66 42 60 5.1 -80 8 03/31/2025 04:45 PM 18360
36504 0.0 4.06 0 68 41 61 5.1 -81 8 03/31/2025 04:30 PM 18359
36503 0.0 4.14 0 67 42 60 5.1 -79 8 03/31/2025 04:15 PM 18358
36502 0.0 4.01 0 66 44 60 5.1 -83 8 03/31/2025 04:00 PM 18357